sensor_id;sensor_type;location;lat;lon;timestamp;pressure;altitude;pressure_sealevel;temperature
37452;BMP280;23314;51.114;6.900;2023-04-25T00:01:21;100718.53;;;6.42
37452;BMP280;23314;51.114;6.900;2023-04-25T00:03:49;100721.19;;;6.39
37452;BMP280;23314;51.114;6.900;2023-04-25T00:06:15;100715.50;;;6.37
37452;BMP280;23314;51.114;6.900;2023-04-25T00:08:40;100718.88;;;6.34
37452;BMP280;23314;51.114;6.900;2023-04-25T00:11:06;100711.66;;;6.30
37452;BMP280;23314;51.114;6.900;2023-04-25T00:13:31;100718.09;;;6.29
37452;BMP280;23314;51.114;6.900;2023-04-25T00:15:57;100716.22;;;6.30
37452;BMP280;23314;51.114;6.900;2023-04-25T00:18:23;100718.50;;;6.28
37452;BMP280;23314;51.114;6.900;2023-04-25T00:20:48;100720.75;;;6.29
37452;BMP280;23314;51.114;6.900;2023-04-25T00:23:17;100719.66;;;6.34
37452;BMP280;23314;51.114;6.900;2023-04-25T00:25:50;100726.88;;;6.37
37452;BMP280;23314;51.114;6.900;2023-04-25T00:28:15;100720.50;;;6.49
37452;BMP280;23314;51.114;6.900;2023-04-25T00:30:42;100730.41;;;6.63
37452;BMP280;23314;51.114;6.900;2023-04-25T00:33:07;100724.41;;;6.77
37452;BMP280;23314;51.114;6.900;2023-04-25T00:35:33;100723.34;;;6.92
37452;BMP280;23314;51.114;6.900;2023-04-25T00:37:59;100727.91;;;7.10
37452;BMP280;23314;51.114;6.900;2023-04-25T00:40:24;100724.91;;;7.22
37452;BMP280;23314;51.114;6.900;2023-04-25T00:42:51;100729.09;;;7.34
37452;BMP280;23314;51.114;6.900;2023-04-25T00:45:17;100724.97;;;7.44
37452;BMP280;23314;51.114;6.900;2023-04-25T00:47:43;100724.59;;;7.53
37452;BMP280;23314;51.114;6.900;2023-04-25T00:50:09;100726.09;;;7.61
37452;BMP280;23314;51.114;6.900;2023-04-25T00:52:37;100725.69;;;7.70
37452;BMP280;23314;51.114;6.900;2023-04-25T00:55:02;100729.50;;;7.76
37452;BMP280;23314;51.114;6.900;2023-04-25T00:57:28;100731.38;;;7.83
37452;BMP280;23314;51.114;6.900;2023-04-25T00:59:54;100728.00;;;7.90
37452;BMP280;23314;51.114;6.900;2023-04-25T01:02:19;100721.91;;;7.96
37452;BMP280;23314;51.114;6.900;2023-04-25T01:04:46;100713.56;;;8.01
37452;BMP280;23314;51.114;6.900;2023-04-25T01:07:12;100712.41;;;8.10
37452;BMP280;23314;51.114;6.900;2023-04-25T01:09:37;100718.88;;;8.12
37452;BMP280;23314;51.114;6.900;2023-04-25T01:12:03;100721.13;;;8.17
37452;BMP280;23314;51.114;6.900;2023-04-25T01:14:28;100718.84;;;8.23
37452;BMP280;23314;51.114;6.900;2023-04-25T01:16:55;100719.22;;;8.25
37452;BMP280;23314;51.114;6.900;2023-04-25T01:19:20;100726.41;;;8.28
37452;BMP280;23314;51.114;6.900;2023-04-25T01:21:46;100724.88;;;8.31
37452;BMP280;23314;51.114;6.900;2023-04-25T01:24:12;100725.66;;;8.35
37452;BMP280;23314;51.114;6.900;2023-04-25T01:26:38;100731.31;;;8.37
37452;BMP280;23314;51.114;6.900;2023-04-25T01:29:04;100720.66;;;8.41
37452;BMP280;23314;51.114;6.900;2023-04-25T01:31:30;100721.44;;;8.45
37452;BMP280;23314;51.114;6.900;2023-04-25T01:33:57;100727.84;;;8.47
37452;BMP280;23314;51.114;6.900;2023-04-25T01:36:22;100725.56;;;8.49
37452;BMP280;23314;51.114;6.900;2023-04-25T01:38:48;100736.59;;;8.51
37452;BMP280;23314;51.114;6.900;2023-04-25T01:41:14;100729.00;;;8.54
37452;BMP280;23314;51.114;6.900;2023-04-25T01:43:40;100732.41;;;8.54
37452;BMP280;23314;51.114;6.900;2023-04-25T01:46:05;100724.78;;;8.56
37452;BMP280;23314;51.114;6.900;2023-04-25T01:48:31;100729.00;;;8.54
37452;BMP280;23314;51.114;6.900;2023-04-25T01:50:56;100729.38;;;8.52
37452;BMP280;23314;51.114;6.900;2023-04-25T01:53:21;100730.94;;;8.46
37452;BMP280;23314;51.114;6.900;2023-04-25T01:55:47;100735.84;;;8.36
37452;BMP280;23314;51.114;6.900;2023-04-25T01:58:13;100736.66;;;8.26
37452;BMP280;23314;51.114;6.900;2023-04-25T02:00:38;100731.00;;;8.13
37452;BMP280;23314;51.114;6.900;2023-04-25T02:03:05;100747.72;;;8.03
37452;BMP280;23314;51.114;6.900;2023-04-25T02:05:34;100742.41;;;7.92
37452;BMP280;23314;51.114;6.900;2023-04-25T02:08:00;100744.34;;;7.81
37452;BMP280;23314;51.114;6.900;2023-04-25T02:10:26;100751.16;;;7.75
37452;BMP280;23314;51.114;6.900;2023-04-25T02:12:51;100750.00;;;7.68
37452;BMP280;23314;51.114;6.900;2023-04-25T02:15:16;100748.88;;;7.66
37452;BMP280;23314;51.114;6.900;2023-04-25T02:17:42;100751.16;;;7.67
37452;BMP280;23314;51.114;6.900;2023-04-25T02:20:07;100750.75;;;7.72
37452;BMP280;23314;51.114;6.900;2023-04-25T02:22:33;100754.19;;;7.80
37452;BMP280;23314;51.114;6.900;2023-04-25T02:25:00;100754.19;;;7.87
37452;BMP280;23314;51.114;6.900;2023-04-25T02:27:25;100754.16;;;7.95
37452;BMP280;23314;51.114;6.900;2023-04-25T02:29:51;100759.47;;;8.02
37452;BMP280;23314;51.114;6.900;2023-04-25T02:32:17;100757.19;;;8.08
37452;BMP280;23314;51.114;6.900;2023-04-25T02:34:42;100749.97;;;8.12
37452;BMP280;23314;51.114;6.900;2023-04-25T02:37:07;100755.28;;;8.15
37452;BMP280;23314;51.114;6.900;2023-04-25T02:39:32;100752.22;;;8.17
37452;BMP280;23314;51.114;6.900;2023-04-25T02:41:58;100749.19;;;8.18
37452;BMP280;23314;51.114;6.900;2023-04-25T02:44:23;100760.22;;;8.17
37452;BMP280;23314;51.114;6.900;2023-04-25T02:46:48;100754.88;;;8.17
37452;BMP280;23314;51.114;6.900;2023-04-25T02:49:14;100749.97;;;8.15
37452;BMP280;23314;51.114;6.900;2023-04-25T02:51:39;100745.41;;;8.16
37452;BMP280;23314;51.114;6.900;2023-04-25T02:54:06;100737.06;;;8.14
37452;BMP280;23314;51.114;6.900;2023-04-25T02:56:31;100736.69;;;8.15
37452;BMP280;23314;51.114;6.900;2023-04-25T02:58:57;100731.75;;;8.14
37452;BMP280;23314;51.114;6.900;2023-04-25T03:01:22;100728.31;;;8.17
37452;BMP280;23314;51.114;6.900;2023-04-25T03:03:47;100734.41;;;8.17
37452;BMP280;23314;51.114;6.900;2023-04-25T03:06:13;100736.28;;;8.20
37452;BMP280;23314;51.114;6.900;2023-04-25T03:08:38;100738.94;;;8.20
37452;BMP280;23314;51.114;6.900;2023-04-25T03:11:04;100740.84;;;8.24
37452;BMP280;23314;51.114;6.900;2023-04-25T03:13:29;100743.50;;;8.24
37452;BMP280;23314;51.114;6.900;2023-04-25T03:15:55;100746.16;;;8.27
37452;BMP280;23314;51.114;6.900;2023-04-25T03:18:20;100743.88;;;8.29
37452;BMP280;23314;51.114;6.900;2023-04-25T03:20:45;100736.66;;;8.30
37452;BMP280;23314;51.114;6.900;2023-04-25T03:23:11;100745.00;;;8.32
37452;BMP280;23314;51.114;6.900;2023-04-25T03:25:37;100743.47;;;8.34
37452;BMP280;23314;51.114;6.900;2023-04-25T03:28:02;100745.00;;;8.35
37452;BMP280;23314;51.114;6.900;2023-04-25T03:30:27;100749.16;;;8.36
37452;BMP280;23314;51.114;6.900;2023-04-25T03:32:53;100742.69;;;8.38
37452;BMP280;23314;51.114;6.900;2023-04-25T03:35:21;100753.31;;;8.38
37452;BMP280;23314;51.114;6.900;2023-04-25T03:37:49;100746.13;;;8.38
37452;BMP280;23314;51.114;6.900;2023-04-25T03:40:14;100754.84;;;8.39
37452;BMP280;23314;51.114;6.900;2023-04-25T03:42:39;100754.47;;;8.40
37452;BMP280;23314;51.114;6.900;2023-04-25T03:45:05;100750.31;;;8.39
37452;BMP280;23314;51.114;6.900;2023-04-25T03:47:31;100756.75;;;8.38
37452;BMP280;23314;51.114;6.900;2023-04-25T03:49:56;100757.13;;;8.40
37452;BMP280;23314;51.114;6.900;2023-04-25T03:52:21;100755.97;;;8.38
37452;BMP280;23314;51.114;6.900;2023-04-25T03:54:47;100757.88;;;8.41
37452;BMP280;23314;51.114;6.900;2023-04-25T03:57:12;100763.19;;;8.41
37452;BMP280;23314;51.114;6.900;2023-04-25T03:59:38;100767.38;;;8.42
37452;BMP280;23314;51.114;6.900;2023-04-25T04:02:03;100763.97;;;8.41
37452;BMP280;23314;51.114;6.900;2023-04-25T04:04:28;100762.06;;;8.42
37452;BMP280;23314;51.114;6.900;2023-04-25T04:06:54;100762.47;;;8.40
37452;BMP280;23314;51.114;6.900;2023-04-25T04:09:19;100761.69;;;8.36
37452;BMP280;23314;51.114;6.900;2023-04-25T04:11:45;100773.09;;;8.33
37452;BMP280;23314;51.114;6.900;2023-04-25T04:14:11;100774.59;;;8.30
37452;BMP280;23314;51.114;6.900;2023-04-25T04:16:36;100774.25;;;8.28
37452;BMP280;23314;51.114;6.900;2023-04-25T04:19:02;100776.91;;;8.28
37452;BMP280;23314;51.114;6.900;2023-04-25T04:21:27;100784.50;;;8.26
37452;BMP280;23314;51.114;6.900;2023-04-25T04:23:53;100779.19;;;8.26
37452;BMP280;23314;51.114;6.900;2023-04-25T04:26:20;100779.56;;;8.28
37452;BMP280;23314;51.114;6.900;2023-04-25T04:28:49;100781.81;;;8.30
37452;BMP280;23314;51.114;6.900;2023-04-25T04:31:16;100780.31;;;8.29
37452;BMP280;23314;51.114;6.900;2023-04-25T04:33:43;100790.56;;;8.30
37452;BMP280;23314;51.114;6.900;2023-04-25T04:36:09;100789.81;;;8.30
37452;BMP280;23314;51.114;6.900;2023-04-25T04:38:35;100784.09;;;8.28
37452;BMP280;23314;51.114;6.900;2023-04-25T04:41:01;100794.00;;;8.24
37452;BMP280;23314;51.114;6.900;2023-04-25T04:43:27;100794.00;;;8.20
37452;BMP280;23314;51.114;6.900;2023-04-25T04:45:53;100798.53;;;8.16
37452;BMP280;23314;51.114;6.900;2023-04-25T04:48:21;100802.75;;;8.13
37452;BMP280;23314;51.114;6.900;2023-04-25T04:50:47;100806.53;;;8.12
37452;BMP280;23314;51.114;6.900;2023-04-25T04:53:12;100803.88;;;8.12
37452;BMP280;23314;51.114;6.900;2023-04-25T04:55:40;100807.69;;;8.11
37452;BMP280;23314;51.114;6.900;2023-04-25T04:58:08;100816.41;;;8.12
37452;BMP280;23314;51.114;6.900;2023-04-25T05:00:33;100807.28;;;8.09
37452;BMP280;23314;51.114;6.900;2023-04-25T05:02:59;100816.41;;;8.08
37452;BMP280;23314;51.114;6.900;2023-04-25T05:05:25;100823.59;;;8.08
37452;BMP280;23314;51.114;6.900;2023-04-25T05:07:50;100827.78;;;8.05
37452;BMP280;23314;51.114;6.900;2023-04-25T05:10:19;100828.16;;;8.07
37452;BMP280;23314;51.114;6.900;2023-04-25T05:12:45;100833.47;;;8.07
37452;BMP280;23314;51.114;6.900;2023-04-25T05:15:12;100830.81;;;8.11
37452;BMP280;23314;51.114;6.900;2023-04-25T05:17:40;100843.34;;;8.17
37452;BMP280;23314;51.114;6.900;2023-04-25T05:20:07;100850.94;;;8.26
37452;BMP280;23314;51.114;6.900;2023-04-25T05:22:34;100850.91;;;8.37
37452;BMP280;23314;51.114;6.900;2023-04-25T05:25:00;100847.91;;;8.46
37452;BMP280;23314;51.114;6.900;2023-04-25T05:27:26;100854.69;;;8.58
37452;BMP280;23314;51.114;6.900;2023-04-25T05:29:59;100855.78;;;8.71
37452;BMP280;23314;51.114;6.900;2023-04-25T05:32:28;100867.94;;;8.87
37452;BMP280;23314;51.114;6.900;2023-04-25T05:34:53;100867.53;;;8.95
37452;BMP280;23314;51.114;6.900;2023-04-25T05:37:19;100860.28;;;8.99
37452;BMP280;23314;51.114;6.900;2023-04-25T05:39:44;100859.50;;;8.99
37452;BMP280;23314;51.114;6.900;2023-04-25T05:42:09;100866.00;;;8.98
37452;BMP280;23314;51.114;6.900;2023-04-25T05:44:36;100864.06;;;9.02
37452;BMP280;23314;51.114;6.900;2023-04-25T05:47:01;100864.81;;;9.03
37452;BMP280;23314;51.114;6.900;2023-04-25T05:49:26;100876.25;;;8.99
37452;BMP280;23314;51.114;6.900;2023-04-25T05:51:52;100872.47;;;8.97
37452;BMP280;23314;51.114;6.900;2023-04-25T05:54:17;100872.06;;;8.95
37452;BMP280;23314;51.114;6.900;2023-04-25T05:56:43;100879.69;;;8.96
37452;BMP280;23314;51.114;6.900;2023-04-25T05:59:08;100887.28;;;9.02
37452;BMP280;23314;51.114;6.900;2023-04-25T06:01:33;100890.25;;;9.11
37452;BMP280;23314;51.114;6.900;2023-04-25T06:03:59;100888.22;;;9.40
37452;BMP280;23314;51.114;6.900;2023-04-25T06:06:24;100888.06;;;9.73
37452;BMP280;23314;51.114;6.900;2023-04-25T06:08:50;100889.91;;;9.76
37452;BMP280;23314;51.114;6.900;2023-04-25T06:11:16;100889.16;;;9.83
37452;BMP280;23314;51.114;6.900;2023-04-25T06:13:41;100886.44;;;9.86
37452;BMP280;23314;51.114;6.900;2023-04-25T06:16:06;100892.50;;;9.90
37452;BMP280;23314;51.114;6.900;2023-04-25T06:18:32;100901.22;;;9.94
37452;BMP280;23314;51.114;6.900;2023-04-25T06:20:57;100887.47;;;10.03
37452;BMP280;23314;51.114;6.900;2023-04-25T06:23:23;100892.72;;;10.10
37452;BMP280;23314;51.114;6.900;2023-04-25T06:25:48;100887.38;;;10.10
37452;BMP280;23314;51.114;6.900;2023-04-25T06:28:13;100896.13;;;10.15
37452;BMP280;23314;51.114;6.900;2023-04-25T06:30:39;100901.41;;;10.22
37452;BMP280;23314;51.114;6.900;2023-04-25T06:33:04;100896.75;;;10.30
37452;BMP280;23314;51.114;6.900;2023-04-25T06:35:29;100901.94;;;10.48
37452;BMP280;23314;51.114;6.900;2023-04-25T06:37:55;100903.66;;;10.69
37452;BMP280;23314;51.114;6.900;2023-04-25T06:40:20;100895.09;;;10.81
37452;BMP280;23314;51.114;6.900;2023-04-25T06:42:46;100904.56;;;10.89
37452;BMP280;23314;51.114;6.900;2023-04-25T06:45:11;100903.03;;;10.88
37452;BMP280;23314;51.114;6.900;2023-04-25T06:47:37;100905.69;;;10.88
37452;BMP280;23314;51.114;6.900;2023-04-25T06:50:04;100917.44;;;10.95
37452;BMP280;23314;51.114;6.900;2023-04-25T06:52:29;100916.25;;;10.99
37452;BMP280;23314;51.114;6.900;2023-04-25T06:54:54;100921.06;;;11.12
37452;BMP280;23314;51.114;6.900;2023-04-25T06:57:20;100927.06;;;11.19
37452;BMP280;23314;51.114;6.900;2023-04-25T06:59:45;100925.09;;;11.27
37452;BMP280;23314;51.114;6.900;2023-04-25T07:02:11;100925.97;;;11.17
37452;BMP280;23314;51.114;6.900;2023-04-25T07:04:36;100926.06;;;11.09
37452;BMP280;23314;51.114;6.900;2023-04-25T07:07:01;100941.34;;;11.05
37452;BMP280;23314;51.114;6.900;2023-04-25T07:09:28;100939.63;;;10.91
37452;BMP280;23314;51.114;6.900;2023-04-25T07:11:54;100936.28;;;10.80
37452;BMP280;23314;51.114;6.900;2023-04-25T07:14:19;100937.59;;;10.65
37452;BMP280;23314;51.114;6.900;2023-04-25T07:16:45;100935.72;;;10.62
37452;BMP280;23314;51.114;6.900;2023-04-25T07:19:10;100941.75;;;10.69
37452;BMP280;23314;51.114;6.900;2023-04-25T07:21:35;100948.53;;;10.74
37452;BMP280;23314;51.114;6.900;2023-04-25T07:24:01;100947.78;;;10.73
37452;BMP280;23314;51.114;6.900;2023-04-25T07:26:27;100952.00;;;10.71
37452;BMP280;23314;51.114;6.900;2023-04-25T07:28:52;100950.47;;;10.73
37452;BMP280;23314;51.114;6.900;2023-04-25T07:31:19;100952.34;;;10.76
37452;BMP280;23314;51.114;6.900;2023-04-25T07:33:45;100951.81;;;10.89
37452;BMP280;23314;51.114;6.900;2023-04-25T07:36:11;100943.34;;;10.98
37452;BMP280;23314;51.114;6.900;2023-04-25T07:38:37;100950.06;;;11.09
37452;BMP280;23314;51.114;6.900;2023-04-25T07:41:03;100946.88;;;11.22
37452;BMP280;23314;51.114;6.900;2023-04-25T07:43:28;100942.94;;;11.34
37452;BMP280;23314;51.114;6.900;2023-04-25T07:45:53;100949.22;;;11.47
37452;BMP280;23314;51.114;6.900;2023-04-25T07:48:19;100954.06;;;11.56
37452;BMP280;23314;51.114;6.900;2023-04-25T07:50:44;100955.13;;;11.66
37452;BMP280;23314;51.114;6.900;2023-04-25T07:53:10;100960.75;;;11.71
37452;BMP280;23314;51.114;6.900;2023-04-25T07:55:36;100960.03;;;11.67
37452;BMP280;23314;51.114;6.900;2023-04-25T07:58:05;100968.75;;;11.71
37452;BMP280;23314;51.114;6.900;2023-04-25T08:00:30;100970.06;;;11.60
37452;BMP280;23314;51.114;6.900;2023-04-25T08:02:56;100966.13;;;11.40
37452;BMP280;23314;51.114;6.900;2023-04-25T08:05:21;100968.81;;;11.37
37452;BMP280;23314;51.114;6.900;2023-04-25T08:07:47;100970.84;;;11.29
37452;BMP280;23314;51.114;6.900;2023-04-25T08:10:12;100985.34;;;11.28
37452;BMP280;23314;51.114;6.900;2023-04-25T08:12:38;100992.53;;;11.31
37452;BMP280;23314;51.114;6.900;2023-04-25T08:15:04;100991.13;;;11.23
37452;BMP280;23314;51.114;6.900;2023-04-25T08:17:30;100997.25;;;11.20
37452;BMP280;23314;51.114;6.900;2023-04-25T08:19:55;101001.91;;;11.12
37452;BMP280;23314;51.114;6.900;2023-04-25T08:22:22;101014.91;;;11.10
37452;BMP280;23314;51.114;6.900;2023-04-25T08:24:47;100998.53;;;11.08
37452;BMP280;23314;51.114;6.900;2023-04-25T08:27:12;101005.00;;;11.11
37452;BMP280;23314;51.114;6.900;2023-04-25T08:29:38;101013.69;;;11.18
37452;BMP280;23314;51.114;6.900;2023-04-25T08:32:03;101023.16;;;11.23
37452;BMP280;23314;51.114;6.900;2023-04-25T08:34:29;101022.22;;;11.40
37452;BMP280;23314;51.114;6.900;2023-04-25T08:36:59;101027.72;;;11.57
37452;BMP280;23314;51.114;6.900;2023-04-25T08:39:24;101024.81;;;11.75
37452;BMP280;23314;51.114;6.900;2023-04-25T08:41:50;101025.13;;;11.81
37452;BMP280;23314;51.114;6.900;2023-04-25T08:44:16;101019.34;;;11.86
37452;BMP280;23314;51.114;6.900;2023-04-25T08:46:41;101025.44;;;11.86
37452;BMP280;23314;51.114;6.900;2023-04-25T08:49:07;101029.03;;;12.03
37452;BMP280;23314;51.114;6.900;2023-04-25T08:51:36;101034.88;;;12.22
37452;BMP280;23314;51.114;6.900;2023-04-25T08:54:10;101042.38;;;12.31
37452;BMP280;23314;51.114;6.900;2023-04-25T08:56:38;101042.75;;;12.33
37452;BMP280;23314;51.114;6.900;2023-04-25T08:59:04;101037.38;;;12.33
37452;BMP280;23314;51.114;6.900;2023-04-25T09:01:29;101041.78;;;12.43
37452;BMP280;23314;51.114;6.900;2023-04-25T09:03:57;101043.59;;;12.50
37452;BMP280;23314;51.114;6.900;2023-04-25T09:06:23;101054.69;;;12.48
37452;BMP280;23314;51.114;6.900;2023-04-25T09:08:50;101056.13;;;12.29
37452;BMP280;23314;51.114;6.900;2023-04-25T09:11:15;101066.50;;;12.00
37452;BMP280;23314;51.114;6.900;2023-04-25T09:13:41;101063.91;;;11.93
37452;BMP280;23314;51.114;6.900;2023-04-25T09:16:06;101062.94;;;12.10
37452;BMP280;23314;51.114;6.900;2023-04-25T09:18:33;101064.88;;;12.33
37452;BMP280;23314;51.114;6.900;2023-04-25T09:21:10;101069.53;;;12.53
37452;BMP280;23314;51.114;6.900;2023-04-25T09:23:53;101078.06;;;12.92
37452;BMP280;23314;51.114;6.900;2023-04-25T09:26:20;101068.38;;;12.98
37452;BMP280;23314;51.114;6.900;2023-04-25T09:28:46;101072.66;;;13.15
37452;BMP280;23314;51.114;6.900;2023-04-25T09:31:21;101077.41;;;13.28
37452;BMP280;23314;51.114;6.900;2023-04-25T09:33:47;101077.47;;;13.44
37452;BMP280;23314;51.114;6.900;2023-04-25T09:36:12;101089.81;;;13.58
37452;BMP280;23314;51.114;6.900;2023-04-25T09:38:45;101091.91;;;13.50
37452;BMP280;23314;51.114;6.900;2023-04-25T09:41:11;101094.25;;;13.48
37452;BMP280;23314;51.114;6.900;2023-04-25T09:43:37;101091.22;;;13.46
37452;BMP280;23314;51.114;6.900;2023-04-25T09:46:10;101094.31;;;13.45
37452;BMP280;23314;51.114;6.900;2023-04-25T09:48:36;101099.81;;;13.37
37452;BMP280;23314;51.114;6.900;2023-04-25T09:51:05;101092.72;;;13.27
37452;BMP280;23314;51.114;6.900;2023-04-25T09:53:33;101095.25;;;13.14
37452;BMP280;23314;51.114;6.900;2023-04-25T09:56:00;101090.16;;;13.00
37452;BMP280;23314;51.114;6.900;2023-04-25T09:58:28;101105.38;;;13.27
37452;BMP280;23314;51.114;6.900;2023-04-25T10:01:00;101105.09;;;13.61
37452;BMP280;23314;51.114;6.900;2023-04-25T10:03:26;101096.59;;;13.99
37452;BMP280;23314;51.114;6.900;2023-04-25T10:05:52;101096.72;;;14.29
37452;BMP280;23314;51.114;6.900;2023-04-25T10:08:18;101116.78;;;14.41
37452;BMP280;23314;51.114;6.900;2023-04-25T10:10:46;101121.63;;;14.13
37452;BMP280;23314;51.114;6.900;2023-04-25T10:13:13;101128.00;;;13.82
37452;BMP280;23314;51.114;6.900;2023-04-25T10:15:40;101126.03;;;13.46
37452;BMP280;23314;51.114;6.900;2023-04-25T10:18:06;101117.34;;;13.22
37452;BMP280;23314;51.114;6.900;2023-04-25T10:20:32;101124.59;;;13.21
37452;BMP280;23314;51.114;6.900;2023-04-25T10:23:12;101126.75;;;13.30
37452;BMP280;23314;51.114;6.900;2023-04-25T10:25:39;101126.47;;;13.45
37452;BMP280;23314;51.114;6.900;2023-04-25T10:28:05;101123.28;;;13.70
37452;BMP280;23314;51.114;6.900;2023-04-25T10:30:31;101135.06;;;13.93
37452;BMP280;23314;51.114;6.900;2023-04-25T10:32:59;101145.25;;;14.01
37452;BMP280;23314;51.114;6.900;2023-04-25T10:35:29;101134.94;;;14.00
37452;BMP280;23314;51.114;6.900;2023-04-25T10:38:11;101140.78;;;13.95
37452;BMP280;23314;51.114;6.900;2023-04-25T10:40:38;101150.09;;;13.90
37452;BMP280;23314;51.114;6.900;2023-04-25T10:43:39;101153.72;;;13.80
37452;BMP280;23314;51.114;6.900;2023-04-25T10:46:26;101144.94;;;13.79
37452;BMP280;23314;51.114;6.900;2023-04-25T10:48:57;101149.75;;;13.88
37452;BMP280;23314;51.114;6.900;2023-04-25T10:51:27;101147.91;;;14.01
37452;BMP280;23314;51.114;6.900;2023-04-25T10:54:06;101142.31;;;14.12
37452;BMP280;23314;51.114;6.900;2023-04-25T10:56:39;101144.69;;;14.27
37452;BMP280;23314;51.114;6.900;2023-04-25T10:59:18;101151.22;;;14.42
37452;BMP280;23314;51.114;6.900;2023-04-25T11:01:49;101143.91;;;14.43
37452;BMP280;23314;51.114;6.900;2023-04-25T11:04:20;101140.84;;;14.44
37452;BMP280;23314;51.114;6.900;2023-04-25T11:07:07;101135.53;;;14.57
37452;BMP280;23314;51.114;6.900;2023-04-25T11:09:37;101133.53;;;14.61
37452;BMP280;23314;51.114;6.900;2023-04-25T11:12:03;101137.47;;;14.57
37452;BMP280;23314;51.114;6.900;2023-04-25T11:14:30;101146.13;;;14.64
37452;BMP280;23314;51.114;6.900;2023-04-25T11:16:56;101151.63;;;14.74
37452;BMP280;23314;51.114;6.900;2023-04-25T11:19:23;101142.31;;;14.62
37452;BMP280;23314;51.114;6.900;2023-04-25T11:21:49;101141.94;;;14.47
37452;BMP280;23314;51.114;6.900;2023-04-25T11:24:16;101138.41;;;14.33
37452;BMP280;23314;51.114;6.900;2023-04-25T11:26:51;101141.59;;;14.28
37452;BMP280;23314;51.114;6.900;2023-04-25T11:29:16;101136.47;;;14.34
37452;BMP280;23314;51.114;6.900;2023-04-25T11:31:45;101139.41;;;14.40
37452;BMP280;23314;51.114;6.900;2023-04-25T11:34:17;101138.72;;;14.35
37452;BMP280;23314;51.114;6.900;2023-04-25T11:36:44;101128.19;;;14.28
37452;BMP280;23314;51.114;6.900;2023-04-25T11:39:10;101135.28;;;14.35
37452;BMP280;23314;51.114;6.900;2023-04-25T11:41:37;101135.91;;;14.59
37452;BMP280;23314;51.114;6.900;2023-04-25T11:44:03;101140.22;;;14.69
37452;BMP280;23314;51.114;6.900;2023-04-25T11:46:28;101136.56;;;14.63
37452;BMP280;23314;51.114;6.900;2023-04-25T11:48:55;101123.53;;;14.62
37452;BMP280;23314;51.114;6.900;2023-04-25T11:51:22;101135.50;;;14.74
37452;BMP280;23314;51.114;6.900;2023-04-25T11:53:47;101135.78;;;14.63
37452;BMP280;23314;51.114;6.900;2023-04-25T11:56:14;101136.88;;;14.49
37452;BMP280;23314;51.114;6.900;2023-04-25T11:59:02;101141.00;;;14.53
37452;BMP280;23314;51.114;6.900;2023-04-25T12:01:29;101140.41;;;14.62
37452;BMP280;23314;51.114;6.900;2023-04-25T12:03:55;101146.94;;;14.61
37452;BMP280;23314;51.114;6.900;2023-04-25T12:06:21;101141.41;;;14.35
37452;BMP280;23314;51.114;6.900;2023-04-25T12:09:08;101140.47;;;14.09
37452;BMP280;23314;51.114;6.900;2023-04-25T12:11:40;101151.09;;;13.96
37452;BMP280;23314;51.114;6.900;2023-04-25T12:14:07;101147.66;;;13.96
37452;BMP280;23314;51.114;6.900;2023-04-25T12:16:46;101165.94;;;14.01
37452;BMP280;23314;51.114;6.900;2023-04-25T12:19:19;101168.22;;;14.02
37452;BMP280;23314;51.114;6.900;2023-04-25T12:21:45;101171.44;;;14.14
37452;BMP280;23314;51.114;6.900;2023-04-25T12:24:21;101175.28;;;14.13
37452;BMP280;23314;51.114;6.900;2023-04-25T12:27:04;101181.63;;;14.19
37452;BMP280;23314;51.114;6.900;2023-04-25T12:29:32;101183.09;;;14.24
37452;BMP280;23314;51.114;6.900;2023-04-25T12:31:58;101187.78;;;14.36
37452;BMP280;23314;51.114;6.900;2023-04-25T12:34:25;101199.78;;;14.31
37452;BMP280;23314;51.114;6.900;2023-04-25T12:36:51;101185.56;;;14.34
37452;BMP280;23314;51.114;6.900;2023-04-25T12:39:19;101183.34;;;14.46
37452;BMP280;23314;51.114;6.900;2023-04-25T12:41:46;101196.94;;;14.55
37452;BMP280;23314;51.114;6.900;2023-04-25T12:44:12;101190.41;;;14.40
37452;BMP280;23314;51.114;6.900;2023-04-25T12:46:38;101197.38;;;14.53
37452;BMP280;23314;51.114;6.900;2023-04-25T12:49:04;101191.25;;;14.69
37452;BMP280;23314;51.114;6.900;2023-04-25T12:51:31;101188.72;;;14.79
37452;BMP280;23314;51.114;6.900;2023-04-25T12:53:58;101201.41;;;14.95
37452;BMP280;23314;51.114;6.900;2023-04-25T12:56:24;101196.06;;;14.91
37452;BMP280;23314;51.114;6.900;2023-04-25T12:58:51;101208.09;;;14.86
37452;BMP280;23314;51.114;6.900;2023-04-25T13:01:16;101200.19;;;14.79
37452;BMP280;23314;51.114;6.900;2023-04-25T13:03:41;101211.88;;;14.56
37452;BMP280;23314;51.114;6.900;2023-04-25T13:06:07;101213.22;;;14.31
37452;BMP280;23314;51.114;6.900;2023-04-25T13:08:32;101211.13;;;14.02
37452;BMP280;23314;51.114;6.900;2023-04-25T13:10:58;101219.94;;;13.83
37452;BMP280;23314;51.114;6.900;2023-04-25T13:13:23;101212.69;;;13.60
37452;BMP280;23314;51.114;6.900;2023-04-25T13:15:48;101207.44;;;13.56
37452;BMP280;23314;51.114;6.900;2023-04-25T13:18:15;101214.63;;;13.59
37452;BMP280;23314;51.114;6.900;2023-04-25T13:20:40;101193.06;;;13.66
37452;BMP280;23314;51.114;6.900;2023-04-25T13:23:06;101201.31;;;13.76
37452;BMP280;23314;51.114;6.900;2023-04-25T13:25:31;101211.59;;;13.97
37452;BMP280;23314;51.114;6.900;2023-04-25T13:27:56;101205.41;;;14.20
37452;BMP280;23314;51.114;6.900;2023-04-25T13:30:22;101217.25;;;14.40
37452;BMP280;23314;51.114;6.900;2023-04-25T13:32:47;101216.66;;;14.48
37452;BMP280;23314;51.114;6.900;2023-04-25T13:35:13;101210.22;;;14.62
37452;BMP280;23314;51.114;6.900;2023-04-25T13:37:41;101209.78;;;14.64
37452;BMP280;23314;51.114;6.900;2023-04-25T13:40:08;101208.69;;;14.61
37452;BMP280;23314;51.114;6.900;2023-04-25T13:42:35;101219.41;;;14.45
37452;BMP280;23314;51.114;6.900;2023-04-25T13:45:02;101213.31;;;14.28
37452;BMP280;23314;51.114;6.900;2023-04-25T13:47:28;101207.31;;;14.20
37452;BMP280;23314;51.114;6.900;2023-04-25T13:49:54;101218.16;;;14.33
37452;BMP280;23314;51.114;6.900;2023-04-25T13:52:19;101227.75;;;14.50
37452;BMP280;23314;51.114;6.900;2023-04-25T13:54:45;101220.34;;;14.54
37452;BMP280;23314;51.114;6.900;2023-04-25T13:57:11;101216.84;;;14.58
37452;BMP280;23314;51.114;6.900;2023-04-25T13:59:37;101228.00;;;14.56